Time;durP1;ratioP1;P1;durP2;ratioP2;P2;SDS_P1;SDS_P2;PMS_P1;PMS_P2;Temp;Humidity;BMP_temperature;BMP_pressure;BME280_temperature;BME280_humidity;BME280_pressure;Samples;Min_cycle;Max_cycle;Signal;HPM_P1;HPM_P2
2021/06/19 00:00:13;;;;;;;28.93;26.83;;;;;;;;;;5092197;28;20423;-78
2021/06/19 00:02:39;;;;;;;30.03;27.77;;;;;;;;;;5112433;28;20491;-77
2021/06/19 00:05:06;;;;;;;27.77;25.80;;;;;;;;;;5113466;28;20404;-79
2021/06/19 00:07:32;;;;;;;27.87;25.90;;;;;;;;;;5113033;28;20436;-76
2021/06/19 00:09:58;;;;;;;27.67;25.67;;;;;;;;;;5113924;28;20930;-77
2021/06/19 00:12:24;;;;;;;29.00;26.77;;;;;;;;;;5106305;28;20465;-77
2021/06/19 00:14:53;;;;;;;29.00;26.97;;;;;;;;;;5093209;28;20459;-77
2021/06/19 00:17:19;;;;;;;28.30;26.30;;;;;;;;;;5092924;28;20513;-76
2021/06/19 00:19:45;;;;;;;29.23;27.23;;;;;;;;;;5093373;28;20488;-77
2021/06/19 00:22:11;;;;;;;27.77;25.87;;;;;;;;;;5093335;28;20465;-77
2021/06/19 00:24:38;;;;;;;27.17;25.27;;;;;;;;;;5092894;28;20440;-79
2021/06/19 00:27:07;;;;;;;29.00;26.90;;;;;;;;;;5099730;28;20766;-78
2021/06/19 00:29:34;;;;;;;26.87;24.90;;;;;;;;;;5098058;28;20508;-78
2021/06/19 00:32:00;;;;;;;27.90;25.80;;;;;;;;;;5092671;28;20483;-77
2021/06/19 00:34:26;;;;;;;27.10;25.13;;;;;;;;;;5093296;28;20434;-78
2021/06/19 00:36:52;;;;;;;29.60;27.40;;;;;;;;;;5092740;28;20488;-78
2021/06/19 00:39:18;;;;;;;28.03;26.00;;;;;;;;;;5092593;28;20409;-77
2021/06/19 00:41:44;;;;;;;30.40;28.20;;;;;;;;;;5092645;28;20444;-78
2021/06/19 00:44:17;;;;;;;28.40;26.50;;;;;;;;;;5092741;28;20414;-77
2021/06/19 00:46:44;;;;;;;28.17;26.17;;;;;;;;;;5092758;28;20414;-77
2021/06/19 00:49:13;;;;;;;28.20;26.07;;;;;;;;;;5092451;28;20448;-78
2021/06/19 00:51:41;;;;;;;30.60;28.40;;;;;;;;;;5093100;28;20877;-77
2021/06/19 00:54:07;;;;;;;28.87;26.67;;;;;;;;;;5096346;28;20441;-77
2021/06/19 00:56:37;;;;;;;28.07;25.83;;;;;;;;;;5096490;28;20444;-77
2021/06/19 00:59:07;;;;;;;27.23;25.10;;;;;;;;;;5096404;28;20857;-77
2021/06/19 01:01:34;;;;;;;28.00;25.90;;;;;;;;;;5096141;28;20437;-76
2021/06/19 01:04:03;;;;;;;30.03;27.77;;;;;;;;;;5096036;28;20405;-78
2021/06/19 01:06:30;;;;;;;29.17;26.77;;;;;;;;;;5096032;28;20437;-77
2021/06/19 01:08:56;;;;;;;28.07;26.13;;;;;;;;;;5096053;28;20405;-78
2021/06/19 01:11:22;;;;;;;29.70;27.60;;;;;;;;;;5095873;28;20492;-77
2021/06/19 01:13:49;;;;;;;29.37;27.20;;;;;;;;;;5095905;28;20410;-78
2021/06/19 01:16:16;;;;;;;29.93;27.93;;;;;;;;;;5096053;28;20461;-78
2021/06/19 01:18:42;;;;;;;30.47;28.27;;;;;;;;;;5096013;28;20417;-78
2021/06/19 01:21:18;;;;;;;30.17;27.97;;;;;;;;;;5095797;28;20425;-77
2021/06/19 01:23:45;;;;;;;29.87;27.67;;;;;;;;;;5095498;28;20420;-78
2021/06/19 01:26:14;;;;;;;29.47;27.47;;;;;;;;;;5108438;28;20890;-77
2021/06/19 01:28:41;;;;;;;31.67;29.37;;;;;;;;;;5105556;28;20773;-77
2021/06/19 01:31:07;;;;;;;32.57;30.20;;;;;;;;;;5099609;28;20461;-78
2021/06/19 01:33:33;;;;;;;30.00;27.80;;;;;;;;;;5094064;28;20910;-78
2021/06/19 01:35:59;;;;;;;29.67;27.67;;;;;;;;;;5095216;28;20417;-78
2021/06/19 01:38:25;;;;;;;31.50;29.00;;;;;;;;;;5095800;28;20409;-76
2021/06/19 01:40:51;;;;;;;32.60;30.30;;;;;;;;;;5096383;28;20900;-78
2021/06/19 01:43:17;;;;;;;32.50;30.13;;;;;;;;;;5095782;28;20786;-78
2021/06/19 01:45:43;;;;;;;35.20;32.50;;;;;;;;;;5094556;28;20440;-78
2021/06/19 01:48:09;;;;;;;32.70;30.30;;;;;;;;;;5095997;28;20567;-79
2021/06/19 01:50:36;;;;;;;35.17;32.33;;;;;;;;;;5096017;28;20418;-78
2021/06/19 01:53:06;;;;;;;34.90;32.30;;;;;;;;;;5095767;28;20457;-79
2021/06/19 01:55:32;;;;;;;33.60;31.10;;;;;;;;;;5096227;28;20747;-77
2021/06/19 01:57:59;;;;;;;33.77;31.13;;;;;;;;;;5096146;28;20413;-76
2021/06/19 02:00:29;;;;;;;32.93;30.43;;;;;;;;;;5097265;28;20401;-78
2021/06/19 02:02:55;;;;;;;31.40;29.00;;;;;;;;;;5096657;28;20483;-77
2021/06/19 02:05:21;;;;;;;31.10;28.70;;;;;;;;;;5095560;28;20409;-78
2021/06/19 02:07:52;;;;;;;32.80;30.50;;;;;;;;;;5094555;28;20479;-77
2021/06/19 02:10:20;;;;;;;34.43;32.03;;;;;;;;;;5100285;28;20404;-79
2021/06/19 02:12:46;;;;;;;36.47;33.40;;;;;;;;;;5112706;27;20917;-78
2021/06/19 02:15:12;;;;;;;34.43;32.03;;;;;;;;;;5096111;28;20417;-76
2021/06/19 02:17:38;;;;;;;31.70;29.50;;;;;;;;;;5094591;28;20898;-78
2021/06/19 02:20:05;;;;;;;32.40;30.10;;;;;;;;;;5094689;28;20879;-78
2021/06/19 02:22:31;;;;;;;33.10;30.80;;;;;;;;;;5094582;28;20441;-77
2021/06/19 02:24:57;;;;;;;34.50;32.10;;;;;;;;;;5097962;28;20461;-78
2021/06/19 02:27:24;;;;;;;35.07;32.60;;;;;;;;;;5101341;28;20416;-78
2021/06/19 02:29:50;;;;;;;34.93;32.43;;;;;;;;;;5105070;28;20413;-77
2021/06/19 02:32:16;;;;;;;31.77;29.37;;;;;;;;;;5094036;28;20846;-77
2021/06/19 02:34:42;;;;;;;27.13;25.00;;;;;;;;;;5094462;28;20409;-76
2021/06/19 02:37:08;;;;;;;35.17;32.57;;;;;;;;;;5094624;28;20432;-76
2021/06/19 02:39:34;;;;;;;34.80;32.20;;;;;;;;;;5094237;28;20416;-77
2021/06/19 02:42:00;;;;;;;35.00;32.47;;;;;;;;;;5094507;28;20441;-78
2021/06/19 02:44:26;;;;;;;34.23;31.63;;;;;;;;;;5094383;28;20413;-77
2021/06/19 02:46:52;;;;;;;33.87;31.27;;;;;;;;;;5094491;28;20742;-77
2021/06/19 02:49:18;;;;;;;37.23;34.33;;;;;;;;;;5094338;28;20471;-80
2021/06/19 02:51:45;;;;;;;37.77;34.87;;;;;;;;;;5092957;28;20469;-77
2021/06/19 02:54:11;;;;;;;37.17;34.40;;;;;;;;;;5093793;28;20409;-76
2021/06/19 02:56:37;;;;;;;35.40;32.80;;;;;;;;;;5094158;28;20418;-78
2021/06/19 02:59:03;;;;;;;34.50;32.07;;;;;;;;;;5094439;28;20434;-76
2021/06/19 03:01:29;;;;;;;35.47;32.77;;;;;;;;;;5094208;28;20920;-77
2021/06/19 03:03:55;;;;;;;37.33;34.43;;;;;;;;;;5093942;28;20409;-76
2021/06/19 03:06:21;;;;;;;36.50;33.83;;;;;;;;;;5093863;28;20475;-77
2021/06/19 03:08:47;;;;;;;34.33;31.67;;;;;;;;;;5093998;28;20401;-78
2021/06/19 03:11:13;;;;;;;35.47;32.77;;;;;;;;;;5094161;28;20465;-77
2021/06/19 03:13:39;;;;;;;35.80;33.20;;;;;;;;;;5102164;28;20771;-77
2021/06/19 03:16:05;;;;;;;37.30;34.70;;;;;;;;;;5093528;28;20739;-78
2021/06/19 03:18:31;;;;;;;36.70;34.10;;;;;;;;;;5093720;28;20496;-78
2021/06/19 03:20:57;;;;;;;37.57;34.57;;;;;;;;;;5107564;28;20496;-76
2021/06/19 03:23:26;;;;;;;39.20;36.30;;;;;;;;;;5093471;28;20876;-78
2021/06/19 03:25:53;;;;;;;38.57;35.40;;;;;;;;;;5104942;28;20413;-78
2021/06/19 03:28:19;;;;;;;38.33;35.30;;;;;;;;;;5103171;28;20466;-77
2021/06/19 03:30:46;;;;;;;37.43;34.73;;;;;;;;;;5107128;28;20557;-77
2021/06/19 03:33:12;;;;;;;35.90;33.00;;;;;;;;;;5093313;28;20441;-77
2021/06/19 03:35:38;;;;;;;37.23;34.27;;;;;;;;;;5098038;28;20404;-77
2021/06/19 03:38:06;;;;;;;36.00;32.87;;;;;;;;;;5102596;28;20401;-77
2021/06/19 03:40:32;;;;;;;34.33;31.63;;;;;;;;;;5093532;28;20406;-78
2021/06/19 03:42:58;;;;;;;35.93;33.33;;;;;;;;;;5092994;28;20429;-77
2021/06/19 03:45:27;;;;;;;41.80;37.80;;;;;;;;;;5094286;28;20937;-76
2021/06/19 03:47:56;;;;;;;38.00;35.30;;;;;;;;;;5093373;28;20743;-77
2021/06/19 03:50:24;;;;;;;36.07;32.33;;;;;;;;;;5093710;28;20414;-77
2021/06/19 03:52:50;;;;;;;34.67;32.10;;;;;;;;;;5093399;28;20433;-78
2021/06/19 03:55:16;;;;;;;36.57;33.90;;;;;;;;;;5093143;28;20410;-77
2021/06/19 03:57:42;;;;;;;36.87;33.87;;;;;;;;;;5093594;28;20413;-75
2021/06/19 04:00:12;;;;;;;35.57;32.80;;;;;;;;;;5092283;28;20408;-78
2021/06/19 04:02:38;;;;;;;36.93;33.83;;;;;;;;;;5093380;28;20511;-76
2021/06/19 04:05:05;;;;;;;38.20;34.90;;;;;;;;;;5092713;28;20408;-77
2021/06/19 04:07:31;;;;;;;37.50;34.47;;;;;;;;;;5092829;28;21027;-79
2021/06/19 04:09:57;;;;;;;36.53;33.93;;;;;;;;;;5091657;28;20449;-77
2021/06/19 04:12:23;;;;;;;37.83;34.83;;;;;;;;;;5093185;28;20811;-77
2021/06/19 04:14:49;;;;;;;37.43;34.57;;;;;;;;;;5092848;28;20408;-77
2021/06/19 04:17:16;;;;;;;39.47;36.43;;;;;;;;;;5093343;28;20501;-78
2021/06/19 04:19:43;;;;;;;38.43;35.33;;;;;;;;;;5093169;28;20409;-77
2021/06/19 04:22:10;;;;;;;38.70;35.40;;;;;;;;;;5093178;28;20802;-78
2021/06/19 04:24:36;;;;;;;36.57;33.87;;;;;;;;;;5093117;28;20416;-77
2021/06/19 04:27:03;;;;;;;37.00;33.97;;;;;;;;;;5100915;28;20443;-80
2021/06/19 04:29:31;;;;;;;36.07;33.13;;;;;;;;;;5109381;28;20425;-76
2021/06/19 04:31:58;;;;;;;38.83;35.83;;;;;;;;;;5097021;28;20503;-79
2021/06/19 04:34:24;;;;;;;39.60;36.40;;;;;;;;;;5096936;28;20445;-77
2021/06/19 04:36:50;;;;;;;38.10;35.20;;;;;;;;;;5097046;28;20428;-78
2021/06/19 04:39:16;;;;;;;38.03;35.33;;;;;;;;;;5096485;28;20433;-79
2021/06/19 04:46:48;;;;;;;42.00;38.87;;;;;;;;;;5097191;28;20412;-79
2021/06/19 04:49:14;;;;;;;45.17;41.77;;;;;;;;;;5096574;28;20486;-78
2021/06/19 04:51:41;;;;;;;41.47;38.10;;;;;;;;;;5096688;28;20555;-78
2021/06/19 04:54:07;;;;;;;40.90;37.67;;;;;;;;;;5096379;28;20742;-79
2021/06/19 04:56:34;;;;;;;38.27;35.40;;;;;;;;;;5096564;28;20424;-79
2021/06/19 04:59:00;;;;;;;42.07;38.67;;;;;;;;;;5096517;28;20741;-78
2021/06/19 05:01:28;;;;;;;41.13;38.13;;;;;;;;;;5108489;28;20438;-76
2021/06/19 05:03:55;;;;;;;40.97;37.67;;;;;;;;;;5096496;28;20475;-77
2021/06/19 05:06:21;;;;;;;40.00;36.90;;;;;;;;;;5095804;28;20420;-76
2021/06/19 05:08:47;;;;;;;38.40;35.30;;;;;;;;;;5096076;28;21261;-76
2021/06/19 05:11:13;;;;;;;37.80;34.97;;;;;;;;;;5095749;28;20952;-76
2021/06/19 05:13:39;;;;;;;39.10;36.20;;;;;;;;;;5096934;28;20451;-77
2021/06/19 05:16:05;;;;;;;36.90;33.73;;;;;;;;;;5096069;28;20414;-76
2021/06/19 05:18:31;;;;;;;38.63;35.83;;;;;;;;;;5096037;28;20444;-77
2021/06/19 05:20:57;;;;;;;39.50;36.57;;;;;;;;;;5095807;28;20442;-78
2021/06/19 05:23:23;;;;;;;40.60;37.33;;;;;;;;;;5095950;28;20500;-78
2021/06/19 05:25:49;;;;;;;38.87;36.07;;;;;;;;;;5106640;28;20409;-75
2021/06/19 05:28:16;;;;;;;39.07;35.87;;;;;;;;;;5116279;28;20404;-75
2021/06/19 05:30:42;;;;;;;40.33;37.20;;;;;;;;;;5098777;28;20414;-76
2021/06/19 05:33:08;;;;;;;41.03;37.73;;;;;;;;;;5095784;28;20425;-75
2021/06/19 05:35:35;;;;;;;43.13;39.70;;;;;;;;;;5095461;28;20417;-76
2021/06/19 05:38:01;;;;;;;39.60;36.67;;;;;;;;;;5095685;28;20413;-77
2021/06/19 05:40:27;;;;;;;41.13;37.80;;;;;;;;;;5095622;28;20420;-77
2021/06/19 05:42:53;;;;;;;41.07;37.77;;;;;;;;;;5095473;28;20437;-76
2021/06/19 05:45:19;;;;;;;41.13;37.83;;;;;;;;;;5095539;28;20455;-77
2021/06/19 05:47:45;;;;;;;42.83;39.47;;;;;;;;;;5095558;28;20409;-76
2021/06/19 05:50:12;;;;;;;42.57;39.37;;;;;;;;;;5095707;28;20743;-76
2021/06/19 05:52:38;;;;;;;43.63;40.00;;;;;;;;;;5095377;28;20514;-75
2021/06/19 05:55:05;;;;;;;41.20;38.00;;;;;;;;;;5094948;28;20409;-77
2021/06/19 05:57:31;;;;;;;44.17;40.50;;;;;;;;;;5095181;28;20910;-77
2021/06/19 05:59:57;;;;;;;42.77;39.37;;;;;;;;;;5095513;28;20417;-75
2021/06/19 06:02:23;;;;;;;44.47;41.00;;;;;;;;;;5095312;28;20931;-76
2021/06/19 06:04:52;;;;;;;44.17;40.43;;;;;;;;;;5094993;28;20424;-77
2021/06/19 06:07:18;;;;;;;44.00;40.50;;;;;;;;;;5095130;28;20433;-75
2021/06/19 06:09:44;;;;;;;44.10;39.73;;;;;;;;;;5094569;28;20496;-76
2021/06/19 06:12:11;;;;;;;41.37;38.20;;;;;;;;;;5095052;28;20936;-75
2021/06/19 06:14:37;;;;;;;39.07;35.73;;;;;;;;;;5094825;28;20858;-75
2021/06/19 06:17:03;;;;;;;42.00;38.60;;;;;;;;;;5095233;28;20405;-76
2021/06/19 06:19:29;;;;;;;39.13;36.20;;;;;;;;;;5094882;28;20409;-77
2021/06/19 06:21:55;;;;;;;40.23;37.00;;;;;;;;;;5094879;28;20747;-77
2021/06/19 06:24:21;;;;;;;36.93;34.10;;;;;;;;;;5094660;28;20822;-76
2021/06/19 06:26:47;;;;;;;34.27;31.20;;;;;;;;;;5120291;27;20417;-77
2021/06/19 06:29:13;;;;;;;32.80;29.90;;;;;;;;;;5109633;28;20413;-75
2021/06/19 06:31:40;;;;;;;33.20;30.70;;;;;;;;;;5094447;28;20465;-79
2021/06/19 06:34:06;;;;;;;29.27;26.77;;;;;;;;;;5094340;28;20409;-77
2021/06/19 06:36:32;;;;;;;26.83;24.67;;;;;;;;;;5094637;28;20828;-78
2021/06/19 06:39:02;;;;;;;27.47;25.20;;;;;;;;;;5094021;28;20438;-78
2021/06/19 06:41:28;;;;;;;26.07;23.93;;;;;;;;;;5094142;28;20437;-78
2021/06/19 06:43:54;;;;;;;24.90;22.70;;;;;;;;;;5094545;28;20417;-75
2021/06/19 06:46:20;;;;;;;24.40;22.50;;;;;;;;;;5094025;28;20409;-77
2021/06/19 06:48:46;;;;;;;23.83;21.83;;;;;;;;;;5093377;28;20417;-77
2021/06/19 06:51:12;;;;;;;22.23;20.23;;;;;;;;;;5093799;28;20449;-78
2021/06/19 06:53:38;;;;;;;20.10;18.60;;;;;;;;;;5094399;28;20405;-77
2021/06/19 06:56:04;;;;;;;19.10;17.63;;;;;;;;;;5093913;28;20467;-76
2021/06/19 06:58:30;;;;;;;18.97;17.43;;;;;;;;;;5093969;28;20402;-76
2021/06/19 07:00:56;;;;;;;20.67;18.70;;;;;;;;;;5093884;28;20409;-75
2021/06/19 07:03:23;;;;;;;18.80;17.00;;;;;;;;;;5093627;28;20486;-76
2021/06/19 07:05:49;;;;;;;17.97;16.27;;;;;;;;;;5092552;28;20918;-79
2021/06/19 07:08:15;;;;;;;18.00;16.40;;;;;;;;;;5093610;28;20441;-78
2021/06/19 07:10:41;;;;;;;18.30;16.90;;;;;;;;;;5093729;28;20779;-77
2021/06/19 07:13:07;;;;;;;16.80;15.37;;;;;;;;;;5093556;28;20425;-77
2021/06/19 07:15:33;;;;;;;15.33;14.13;;;;;;;;;;5093694;28;20425;-77
2021/06/19 07:17:59;;;;;;;13.53;12.43;;;;;;;;;;5095831;28;20402;-77
2021/06/19 07:20:25;;;;;;;12.60;11.40;;;;;;;;;;5094006;28;20405;-76
2021/06/19 07:22:51;;;;;;;12.03;11.13;;;;;;;;;;5093726;28;20430;-76
2021/06/19 07:25:18;;;;;;;11.77;10.73;;;;;;;;;;5099939;28;20424;-75
2021/06/19 07:27:47;;;;;;;12.33;11.17;;;;;;;;;;5113962;28;20765;-75
2021/06/19 07:30:13;;;;;;;10.23;9.20;;;;;;;;;;5100535;28;20977;-76
2021/06/19 07:32:39;;;;;;;9.40;8.43;;;;;;;;;;5091875;28;20476;-78
2021/06/19 07:35:06;;;;;;;9.37;8.57;;;;;;;;;;5093268;28;20413;-78
2021/06/19 07:37:32;;;;;;;8.27;7.57;;;;;;;;;;5093335;28;20409;-78
2021/06/19 07:39:58;;;;;;;7.77;7.17;;;;;;;;;;5092300;28;20414;-77
2021/06/19 07:42:25;;;;;;;8.60;7.70;;;;;;;;;;5093559;28;20498;-76
2021/06/19 07:44:51;;;;;;;7.40;6.90;;;;;;;;;;5092489;28;20455;-78
2021/06/19 07:47:17;;;;;;;8.00;7.37;;;;;;;;;;5093543;28;20516;-76
2021/06/19 07:49:43;;;;;;;9.07;8.17;;;;;;;;;;5093357;28;20422;-78
2021/06/19 07:52:09;;;;;;;7.87;7.07;;;;;;;;;;5093284;28;20950;-78
2021/06/19 07:54:37;;;;;;;7.40;6.60;;;;;;;;;;5093304;28;20413;-76
2021/06/19 07:57:06;;;;;;;6.57;5.97;;;;;;;;;;5093191;28;20416;-78
2021/06/19 07:59:33;;;;;;;5.97;5.47;;;;;;;;;;5093002;28;20417;-77
2021/06/19 08:01:59;;;;;;;7.77;5.70;;;;;;;;;;5094840;28;20429;-76
2021/06/19 08:04:25;;;;;;;5.50;5.00;;;;;;;;;;5097204;28;20443;-76
2021/06/19 08:06:51;;;;;;;5.63;5.23;;;;;;;;;;5097281;28;20817;-76
2021/06/19 08:09:17;;;;;;;5.93;5.40;;;;;;;;;;5097325;28;20417;-77
2021/06/19 08:11:43;;;;;;;5.27;4.87;;;;;;;;;;5097573;28;20883;-76
2021/06/19 08:14:09;;;;;;;5.30;4.90;;;;;;;;;;5097178;28;20405;-76
2021/06/19 08:16:35;;;;;;;5.20;4.80;;;;;;;;;;5097210;28;20506;-78
2021/06/19 08:19:01;;;;;;;4.57;4.27;;;;;;;;;;5096846;28;20448;-78
2021/06/19 08:21:27;;;;;;;4.97;4.30;;;;;;;;;;5097305;28;20844;-79
2021/06/19 08:23:53;;;;;;;3.80;3.50;;;;;;;;;;5096828;28;20424;-75
2021/06/19 08:26:19;;;;;;;4.00;3.60;;;;;;;;;;5112023;28;20894;-78
2021/06/19 08:28:45;;;;;;;3.87;3.40;;;;;;;;;;5116026;28;20415;-75
2021/06/19 08:31:11;;;;;;;3.43;2.83;;;;;;;;;;5096744;28;20841;-75
2021/06/19 08:33:37;;;;;;;4.20;3.90;;;;;;;;;;5095391;28;20421;-77
2021/06/19 08:36:04;;;;;;;3.33;3.03;;;;;;;;;;5095967;28;20914;-78
2021/06/19 08:38:30;;;;;;;3.00;2.80;;;;;;;;;;5097498;28;20417;-76
2021/06/19 08:40:56;;;;;;;3.23;2.57;;;;;;;;;;5097750;28;20418;-78
2021/06/19 08:43:22;;;;;;;4.17;3.77;;;;;;;;;;5097244;28;20429;-76
2021/06/19 08:45:50;;;;;;;3.93;3.53;;;;;;;;;;5097886;28;20414;-76
2021/06/19 08:48:17;;;;;;;6.47;3.50;;;;;;;;;;5096158;28;20922;-77
2021/06/19 08:50:44;;;;;;;5.70;3.77;;;;;;;;;;5095975;28;20466;-76
2021/06/19 08:53:10;;;;;;;4.20;3.90;;;;;;;;;;5097307;28;20965;-76
2021/06/19 08:55:37;;;;;;;4.33;3.80;;;;;;;;;;5096880;28;20507;-78
2021/06/19 08:58:03;;;;;;;6.03;4.83;;;;;;;;;;5096057;28;20420;-79
2021/06/19 09:00:29;;;;;;;4.30;4.00;;;;;;;;;;5096261;28;20409;-78
2021/06/19 09:02:56;;;;;;;4.43;3.83;;;;;;;;;;5095954;28;20948;-75
2021/06/19 09:05:26;;;;;;;4.50;4.10;;;;;;;;;;5096320;28;20425;-77
2021/06/19 09:07:53;;;;;;;3.93;3.60;;;;;;;;;;5095752;28;20432;-76
2021/06/19 09:10:20;;;;;;;4.20;3.90;;;;;;;;;;5096215;28;20426;-77
2021/06/19 09:12:57;;;;;;;4.30;3.90;;;;;;;;;;5095156;28;20475;-76
2021/06/19 09:15:23;;;;;;;4.40;4.00;;;;;;;;;;5096098;28;20823;-80
2021/06/19 09:18:04;;;;;;;4.73;4.30;;;;;;;;;;5095647;28;20466;-77
2021/06/19 09:20:38;;;;;;;5.47;5.07;;;;;;;;;;5096025;28;20409;-77
2021/06/19 09:23:05;;;;;;;5.23;4.63;;;;;;;;;;5103184;28;20932;-77
2021/06/19 09:25:31;;;;;;;3.97;3.67;;;;;;;;;;5113756;28;20893;-77
2021/06/19 09:27:58;;;;;;;4.43;3.80;;;;;;;;;;5098918;28;20396;-78
2021/06/19 09:30:24;;;;;;;4.60;3.90;;;;;;;;;;5102224;28;20405;-77
2021/06/19 09:32:55;;;;;;;4.30;3.70;;;;;;;;;;5095878;28;20490;-77
2021/06/19 09:35:26;;;;;;;4.53;4.13;;;;;;;;;;5095381;28;20432;-77
2021/06/19 09:37:54;;;;;;;5.47;4.57;;;;;;;;;;5095521;28;20402;-77
2021/06/19 09:40:27;;;;;;;4.10;3.80;;;;;;;;;;5095477;28;20410;-75
2021/06/19 09:42:55;;;;;;;4.97;3.80;;;;;;;;;;5095213;28;20524;-76
2021/06/19 09:45:23;;;;;;;5.60;4.20;;;;;;;;;;5095020;28;21012;-76
2021/06/19 09:47:49;;;;;;;4.63;4.23;;;;;;;;;;5095100;28;20417;-77
2021/06/19 09:50:18;;;;;;;4.63;4.23;;;;;;;;;;5095518;28;20416;-79
2021/06/19 09:52:44;;;;;;;4.97;4.60;;;;;;;;;;5095026;28;20499;-76
2021/06/19 09:55:11;;;;;;;6.67;5.30;;;;;;;;;;5095544;28;20494;-77
2021/06/19 09:57:47;;;;;;;6.27;4.90;;;;;;;;;;5095222;28;20409;-77
2021/06/19 10:00:14;;;;;;;5.23;4.83;;;;;;;;;;5095341;28;20836;-75
2021/06/19 10:02:41;;;;;;;6.00;4.40;;;;;;;;;;5095038;28;20794;-77
2021/06/19 10:05:08;;;;;;;4.93;4.53;;;;;;;;;;5095013;28;20421;-77
2021/06/19 10:07:35;;;;;;;4.60;4.07;;;;;;;;;;5094861;28;20545;-76
2021/06/19 10:10:02;;;;;;;5.00;4.10;;;;;;;;;;5094925;28;20420;-77
2021/06/19 10:12:32;;;;;;;5.67;4.00;;;;;;;;;;5094833;28;20585;-75
2021/06/19 10:14:59;;;;;;;4.73;4.43;;;;;;;;;;5095172;28;20754;-77
2021/06/19 10:17:28;;;;;;;5.40;4.90;;;;;;;;;;5095043;28;20417;-78
2021/06/19 10:19:55;;;;;;;4.00;3.43;;;;;;;;;;5102069;28;20831;-77
2021/06/19 10:22:25;;;;;;;3.90;3.60;;;;;;;;;;5115061;28;20515;-77
2021/06/19 10:24:52;;;;;;;4.30;4.00;;;;;;;;;;5114089;28;20893;-75
2021/06/19 10:27:18;;;;;;;4.20;3.50;;;;;;;;;;5115283;28;20423;-78
2021/06/19 10:29:46;;;;;;;4.00;3.70;;;;;;;;;;5105797;28;20421;-76
2021/06/19 10:32:12;;;;;;;3.60;3.30;;;;;;;;;;5093466;28;20460;-77
2021/06/19 10:34:39;;;;;;;3.77;3.47;;;;;;;;;;5094229;28;20494;-77
2021/06/19 10:37:08;;;;;;;3.60;3.30;;;;;;;;;;5094525;28;20500;-78
2021/06/19 10:39:41;;;;;;;3.27;3.00;;;;;;;;;;5094169;28;20429;-76
2021/06/19 10:42:27;;;;;;;3.43;3.10;;;;;;;;;;5094562;28;20434;-78
2021/06/19 10:44:59;;;;;;;3.37;3.17;;;;;;;;;;5086693;28;20425;-76
2021/06/19 10:47:26;;;;;;;7.80;3.37;;;;;;;;;;5094196;28;20435;-77
2021/06/19 10:49:53;;;;;;;4.00;3.70;;;;;;;;;;5107815;28;20405;-75
2021/06/19 10:52:26;;;;;;;3.70;3.40;;;;;;;;;;5102179;28;20456;-79
2021/06/19 10:55:14;;;;;;;3.20;3.00;;;;;;;;;;5114415;27;20499;-77
2021/06/19 10:57:52;;;;;;;3.67;3.37;;;;;;;;;;5114676;28;20813;-75
2021/06/19 11:00:25;;;;;;;3.90;3.33;;;;;;;;;;5114238;28;20735;-74
2021/06/19 11:02:52;;;;;;;3.80;3.40;;;;;;;;;;5098966;28;20758;-77
2021/06/19 11:05:36;;;;;;;3.37;3.07;;;;;;;;;;5094199;28;20526;-77
2021/06/19 11:08:02;;;;;;;3.70;3.00;;;;;;;;;;5093650;28;20432;-77
2021/06/19 11:10:58;;;;;;;3.80;3.50;;;;;;;;;;5093847;28;20405;-77
2021/06/19 11:13:30;;;;;;;3.20;2.90;;;;;;;;;;5084745;28;20456;-78
2021/06/19 11:16:03;;;;;;;3.83;3.40;;;;;;;;;;5093968;28;20404;-76
2021/06/19 11:18:51;;;;;;;3.50;3.20;;;;;;;;;;5092202;28;20413;-77
2021/06/19 11:21:17;;;;;;;3.90;3.33;;;;;;;;;;5093788;28;20405;-78
2021/06/19 11:24:02;;;;;;;4.00;2.60;;;;;;;;;;5092002;28;20914;-75
2021/06/19 11:26:49;;;;;;;2.70;2.50;;;;;;;;;;5109515;28;20505;-75
2021/06/19 11:29:33;;;;;;;2.60;2.40;;;;;;;;;;5108543;28;20418;-76
2021/06/19 11:32:19;;;;;;;3.30;3.00;;;;;;;;;;5093357;28;20480;-80
2021/06/19 11:34:45;;;;;;;4.20;2.80;;;;;;;;;;5093095;28;20462;-76
2021/06/19 11:37:11;;;;;;;3.33;2.60;;;;;;;;;;5093392;28;20406;-78
2021/06/19 11:39:37;;;;;;;2.67;2.47;;;;;;;;;;5093045;28;20412;-79
2021/06/19 11:42:04;;;;;;;5.80;2.60;;;;;;;;;;5093130;28;20494;-78
2021/06/19 11:44:33;;;;;;;3.23;2.93;;;;;;;;;;5093075;28;20726;-76
2021/06/19 11:47:01;;;;;;;2.80;2.60;;;;;;;;;;5091919;28;20948;-77
2021/06/19 11:49:28;;;;;;;3.20;2.73;;;;;;;;;;5093269;28;20406;-81
2021/06/19 11:51:55;;;;;;;3.50;3.10;;;;;;;;;;5093600;28;20927;-76
2021/06/19 11:54:22;;;;;;;4.57;2.80;;;;;;;;;;5092957;28;20755;-76
2021/06/19 11:56:48;;;;;;;2.90;2.70;;;;;;;;;;5093224;28;20416;-76
2021/06/19 11:59:15;;;;;;;2.90;2.70;;;;;;;;;;5092893;28;20417;-77
2021/06/19 12:01:42;;;;;;;4.40;2.83;;;;;;;;;;5093067;28;20494;-77
2021/06/19 12:04:14;;;;;;;2.90;2.70;;;;;;;;;;5093044;28;20417;-75
2021/06/19 12:06:42;;;;;;;2.60;2.40;;;;;;;;;;5093150;28;20456;-77
2021/06/19 12:09:14;;;;;;;2.60;2.40;;;;;;;;;;5093019;28;20888;-77
2021/06/19 12:11:41;;;;;;;4.73;2.73;;;;;;;;;;5099770;28;20548;-79
2021/06/19 12:14:16;;;;;;;3.13;2.80;;;;;;;;;;5092820;28;20413;-76
2021/06/19 12:16:42;;;;;;;2.60;2.40;;;;;;;;;;5092975;28;20412;-75
2021/06/19 12:19:09;;;;;;;2.80;2.60;;;;;;;;;;5091467;28;20920;-77
2021/06/19 12:21:38;;;;;;;2.90;2.60;;;;;;;;;;5093289;28;20517;-76
2021/06/19 12:24:18;;;;;;;3.13;2.43;;;;;;;;;;5092826;28;20410;-76
2021/06/19 12:26:56;;;;;;;2.87;2.67;;;;;;;;;;5100373;28;20436;-77
2021/06/19 12:29:33;;;;;;;2.73;2.50;;;;;;;;;;5102004;28;20841;-79
2021/06/19 12:31:59;;;;;;;3.23;2.93;;;;;;;;;;5092861;28;20830;-75
2021/06/19 12:34:28;;;;;;;4.80;3.17;;;;;;;;;;5092854;28;20471;-75
2021/06/19 12:36:56;;;;;;;6.17;5.83;;;;;;;;;;5092622;28;20454;-75
2021/06/19 12:39:22;;;;;;;2.90;2.60;;;;;;;;;;5092822;28;20441;-76
2021/06/19 12:41:49;;;;;;;2.93;2.50;;;;;;;;;;5092740;28;20433;-78
2021/06/19 12:44:15;;;;;;;2.60;2.40;;;;;;;;;;5092456;28;20411;-75
2021/06/19 12:46:41;;;;;;;2.50;2.30;;;;;;;;;;5092586;28;20484;-77
2021/06/19 12:49:07;;;;;;;3.13;2.33;;;;;;;;;;5095577;28;20790;-78
2021/06/19 12:51:41;;;;;;;2.60;2.40;;;;;;;;;;5096665;28;20585;-79
2021/06/19 12:54:17;;;;;;;4.37;2.30;;;;;;;;;;5096452;28;20950;-78
2021/06/19 12:56:54;;;;;;;2.60;2.40;;;;;;;;;;5096349;28;20558;-75
2021/06/19 12:59:20;;;;;;;2.67;2.33;;;;;;;;;;5096009;28;20928;-78
2021/06/19 13:02:06;;;;;;;2.87;2.67;;;;;;;;;;5096203;28;20433;-77
2021/06/19 13:04:32;;;;;;;3.27;3.00;;;;;;;;;;5096030;28;20409;-77
2021/06/19 13:07:09;;;;;;;3.60;3.00;;;;;;;;;;5096084;28;20519;-78
2021/06/19 13:09:48;;;;;;;3.80;3.13;;;;;;;;;;5095985;28;20404;-77
2021/06/19 13:12:20;;;;;;;4.60;4.30;;;;;;;;;;5096037;28;20456;-77
2021/06/19 13:14:47;;;;;;;3.47;2.97;;;;;;;;;;5095971;28;20410;-79
2021/06/19 13:17:19;;;;;;;3.30;3.00;;;;;;;;;;5096004;28;20470;-79
2021/06/19 13:19:46;;;;;;;4.50;4.13;;;;;;;;;;5096075;28;20428;-76
2021/06/19 13:22:12;;;;;;;3.00;2.80;;;;;;;;;;5095746;28;20429;-77
2021/06/19 13:24:41;;;;;;;6.43;3.33;;;;;;;;;;5103055;27;20841;-77
2021/06/19 13:27:18;;;;;;;3.70;3.43;;;;;;;;;;5109017;28;20412;-76
2021/06/19 13:29:55;;;;;;;3.70;3.27;;;;;;;;;;5110030;28;20838;-80
2021/06/19 13:32:21;;;;;;;3.60;3.30;;;;;;;;;;5102996;28;20557;-78
2021/06/19 13:34:51;;;;;;;4.10;3.73;;;;;;;;;;5091785;28;20416;-77
2021/06/19 13:37:18;;;;;;;3.70;3.40;;;;;;;;;;5092470;28;20894;-78
2021/06/19 13:39:48;;;;;;;3.73;3.43;;;;;;;;;;5091761;28;20425;-77
2021/06/19 13:42:16;;;;;;;3.27;2.97;;;;;;;;;;5102010;28;20432;-78
2021/06/19 13:44:43;;;;;;;3.40;3.10;;;;;;;;;;5091666;28;20436;-79
2021/06/19 13:47:12;;;;;;;2.80;2.60;;;;;;;;;;5091494;28;20501;-79
2021/06/19 13:49:39;;;;;;;3.43;3.13;;;;;;;;;;5091624;28;20436;-77
2021/06/19 13:52:06;;;;;;;4.50;2.83;;;;;;;;;;5091550;28;20471;-78
2021/06/19 13:54:42;;;;;;;3.50;3.20;;;;;;;;;;5091571;28;20409;-79
2021/06/19 13:57:16;;;;;;;3.40;3.10;;;;;;;;;;5099615;28;20419;-78
2021/06/19 13:59:43;;;;;;;5.50;3.20;;;;;;;;;;5110190;28;20449;-77
2021/06/19 14:02:10;;;;;;;3.53;3.20;;;;;;;;;;5111937;28;20788;-77
2021/06/19 14:04:37;;;;;;;4.93;2.77;;;;;;;;;;5109121;27;20456;-79
2021/06/19 14:07:04;;;;;;;4.50;4.10;;;;;;;;;;5091177;28;20445;-77
2021/06/19 14:09:31;;;;;;;3.87;3.57;;;;;;;;;;5091117;28;20414;-77
2021/06/19 14:12:06;;;;;;;3.60;3.30;;;;;;;;;;5091170;28;20500;-76
2021/06/19 14:14:32;;;;;;;3.57;3.27;;;;;;;;;;5091029;28;20405;-80
2021/06/19 14:16:59;;;;;;;6.10;3.30;;;;;;;;;;5091404;28;20417;-78
2021/06/19 14:19:25;;;;;;;3.63;3.00;;;;;;;;;;5093093;27;20444;-77
2021/06/19 14:21:52;;;;;;;4.20;3.90;;;;;;;;;;5095699;28;20460;-77
2021/06/19 14:24:19;;;;;;;4.57;4.10;;;;;;;;;;5111316;28;20408;-77
2021/06/19 14:26:50;;;;;;;4.53;3.90;;;;;;;;;;5111330;28;20419;-78
2021/06/19 14:29:16;;;;;;;4.13;3.83;;;;;;;;;;5105994;28;20818;-78
2021/06/19 14:31:42;;;;;;;8.00;4.27;;;;;;;;;;5090732;28;20465;-79
2021/06/19 14:34:08;;;;;;;3.73;3.43;;;;;;;;;;5090830;28;20420;-80
2021/06/19 14:36:34;;;;;;;3.80;3.50;;;;;;;;;;5090940;28;21046;-79